createdAt,value
2018-08-24T00:02:21.366Z,10.00
2018-08-24T00:07:25.306Z,9.60
2018-08-24T00:12:29.122Z,11.40
2018-08-24T00:17:32.878Z,11.60
2018-08-24T00:22:36.628Z,11.50
2018-08-24T00:27:40.432Z,15.00
2018-08-24T00:32:44.173Z,10.80
2018-08-24T00:37:47.979Z,10.50
2018-08-24T00:42:51.832Z,12.80
2018-08-24T00:47:55.603Z,14.25
2018-08-24T00:52:59.372Z,12.00
2018-08-24T00:58:03.229Z,11.75
2018-08-24T01:03:07.062Z,13.20
2018-08-24T01:08:10.817Z,12.40
2018-08-24T01:13:15.080Z,13.20
2018-08-24T01:18:20.694Z,14.80
2018-08-24T01:23:25.856Z,16.75
2018-08-24T01:28:30.481Z,14.00
2018-08-24T01:33:34.431Z,15.50
2018-08-24T01:38:38.198Z,16.80
2018-08-24T01:43:42.019Z,14.60
2018-08-24T01:48:45.754Z,14.25
2018-08-24T01:53:49.544Z,13.00
2018-08-24T01:58:53.407Z,12.00
2018-08-24T02:03:57.125Z,14.20
2018-08-24T02:09:00.965Z,16.60
2018-08-24T02:14:09.986Z,12.50
2018-08-24T02:19:15.124Z,14.60
2018-08-24T02:24:18.954Z,14.40
2018-08-24T02:29:22.686Z,16.50
2018-08-24T02:34:26.481Z,15.50
2018-08-24T02:39:30.274Z,14.80
2018-08-24T02:44:34.011Z,17.00
2018-08-24T02:49:37.792Z,16.00
2018-08-24T02:54:41.620Z,19.00
2018-08-24T02:59:45.669Z,19.00
2018-08-24T03:04:49.433Z,18.00
2018-08-24T03:09:53.314Z,15.80
2018-08-24T03:14:57.058Z,16.40
2018-08-24T03:20:00.840Z,14.75
2018-08-24T03:25:04.703Z,17.25
2018-08-24T03:30:08.533Z,17.80
2018-08-24T03:35:12.283Z,17.00
2018-08-24T03:40:16.154Z,16.50
2018-08-24T03:45:19.957Z,20.00
2018-08-24T03:50:23.664Z,25.40
2018-08-24T03:55:27.399Z,22.00
2018-08-24T04:00:31.157Z,26.00
2018-08-24T04:05:35.010Z,24.00
2018-08-24T04:10:38.966Z,26.20
2018-08-24T04:15:42.928Z,24.60
2018-08-24T04:20:46.699Z,28.00
2018-08-24T04:25:50.549Z,30.75
2018-08-24T04:30:54.287Z,31.20
2018-08-24T04:35:58.100Z,30.50
2018-08-24T04:41:01.860Z,30.60
2018-08-24T04:46:05.662Z,29.60
2018-08-24T04:51:09.399Z,30.75
2018-08-24T04:56:13.243Z,26.75
2018-08-24T05:01:16.947Z,26.20
2018-08-24T05:06:20.703Z,27.80
2018-08-24T05:11:24.475Z,28.50
2018-08-24T05:16:28.284Z,23.75
2018-08-24T05:21:32.093Z,25.25
2018-08-24T05:26:35.862Z,23.40
2018-08-24T05:31:39.593Z,22.60
2018-08-24T05:36:43.341Z,28.25
2018-08-24T05:41:47.091Z,27.80
2018-08-24T05:46:50.877Z,23.80
2018-08-24T05:51:54.630Z,25.00
2018-08-24T05:56:58.337Z,26.00
2018-08-24T06:02:02.115Z,31.00
2018-08-24T06:07:05.917Z,29.60
2018-08-24T06:12:09.689Z,32.40
2018-08-24T06:17:18.665Z,30.25
2018-08-24T06:22:22.399Z,32.00
2018-08-24T06:27:26.213Z,32.75
2018-08-24T06:32:29.962Z,35.80
2018-08-24T06:37:33.759Z,38.00
2018-08-24T06:42:37.531Z,35.00
2018-08-24T06:47:41.367Z,35.25
2018-08-24T06:52:45.069Z,35.40
2018-08-24T06:57:48.842Z,34.00
2018-08-24T07:02:52.863Z,38.00
2018-08-24T07:07:56.677Z,36.75
2018-08-24T07:13:00.530Z,35.25
2018-08-24T07:18:04.449Z,33.40
2018-08-24T07:23:08.281Z,34.75
2018-08-24T07:28:12.099Z,32.80
2018-08-24T07:33:15.939Z,32.20
2018-08-24T07:38:19.717Z,33.00
2018-08-24T07:43:23.612Z,33.50
2018-08-24T07:48:27.371Z,30.50
2018-08-24T07:53:31.139Z,32.60
2018-08-24T07:58:35.090Z,28.80
2018-08-24T08:03:38.833Z,30.20
2018-08-24T08:08:45.582Z,29.75
2018-08-24T08:13:49.391Z,26.40
2018-08-24T08:18:53.184Z,23.40
2018-08-24T08:23:56.968Z,18.60
2018-08-24T08:29:00.786Z,21.00
2018-08-24T08:34:04.681Z,16.00
2018-08-24T08:39:10.448Z,19.75
2018-08-24T08:44:15.113Z,18.00
2018-08-24T08:49:18.952Z,17.25
2018-08-24T08:54:22.683Z,13.00
2018-08-24T08:59:26.507Z,8.50
2018-08-24T09:04:30.261Z,8.75
2018-08-24T09:09:34.016Z,11.80
2018-08-24T09:14:37.772Z,12.75
2018-08-24T09:19:46.643Z,14.50
2018-08-24T09:24:55.683Z,16.50
2018-08-24T09:30:03.199Z,17.00
2018-08-24T09:35:06.943Z,16.20
2018-08-24T09:40:10.693Z,18.00
2018-08-24T09:45:14.437Z,16.40
2018-08-24T09:50:23.364Z,18.20
2018-08-24T09:55:31.195Z,17.25
2018-08-24T10:00:40.086Z,16.00
2018-08-24T10:05:49.110Z,15.80
2018-08-24T10:10:53.004Z,15.00
2018-08-24T10:15:56.726Z,13.40
2018-08-24T10:21:00.479Z,13.50
2018-08-24T10:26:04.207Z,14.00
2018-08-24T10:31:07.957Z,7.50
2018-08-24T10:36:11.740Z,7.80
2018-08-24T10:41:15.450Z,10.25
2018-08-24T10:46:19.726Z,8.75
2018-08-24T10:51:23.520Z,7.60
2018-08-24T10:56:33.684Z,7.00
2018-08-24T11:01:37.266Z,6.80
2018-08-24T11:06:40.918Z,6.80
2018-08-24T11:11:44.560Z,6.80
2018-08-24T11:16:48.173Z,7.25
2018-08-24T11:21:51.857Z,7.00
2018-08-24T11:26:56.889Z,6.00
2018-08-24T11:32:00.423Z,6.75
2018-08-24T11:37:04.196Z,6.25
2018-08-24T11:42:07.882Z,6.40
2018-08-24T11:47:14.505Z,8.20
2018-08-24T11:52:18.887Z,7.00
2018-08-24T11:57:22.639Z,6.00
2018-08-24T12:02:26.387Z,6.00
2018-08-24T12:07:30.020Z,7.25
2018-08-24T12:12:33.937Z,7.00
2018-08-24T12:17:38.375Z,4.60
2018-08-24T12:22:41.939Z,6.75
2018-08-24T12:27:45.571Z,7.00
2018-08-24T12:32:49.553Z,6.75
2018-08-24T12:37:53.387Z,7.75
2018-08-24T12:42:57.050Z,7.00
2018-08-24T12:48:00.733Z,6.00
2018-08-24T12:53:04.452Z,7.50
2018-08-24T12:58:08.106Z,6.75
2018-08-24T13:03:11.875Z,7.40
2018-08-24T13:08:16.758Z,8.60
2018-08-24T13:13:21.310Z,6.50
2018-08-24T13:18:25.504Z,8.50
2018-08-24T13:23:29.206Z,8.50
2018-08-24T13:28:32.837Z,7.20
2018-08-24T13:33:36.725Z,7.75
2018-08-24T13:38:40.554Z,8.75
2018-08-24T13:43:44.568Z,6.00
2018-08-24T13:48:49.103Z,8.60
2018-08-24T13:53:52.755Z,7.80
2018-08-24T13:58:56.503Z,10.00
2018-08-24T14:04:00.150Z,7.75
2018-08-24T14:09:04.010Z,7.00
2018-08-24T14:14:07.709Z,7.50
2018-08-24T14:19:11.580Z,7.80
2018-08-24T14:24:15.239Z,7.50
2018-08-24T14:29:18.940Z,7.60
2018-08-24T14:34:22.530Z,9.25
2018-08-24T14:39:26.126Z,8.75
2018-08-24T14:44:29.804Z,8.60
2018-08-24T14:49:33.428Z,8.25
2018-08-24T14:54:37.255Z,9.50
2018-08-24T14:59:40.867Z,8.00
2018-08-24T15:04:44.541Z,10.00
2018-08-24T15:09:48.460Z,9.00
2018-08-24T15:14:52.227Z,6.00
2018-08-24T15:19:55.908Z,9.40
2018-08-24T15:24:59.951Z,7.00
2018-08-24T15:30:04.375Z,8.25
2018-08-24T15:35:08.617Z,9.80
2018-08-24T15:40:12.290Z,8.00
2018-08-24T15:45:16.015Z,8.00
2018-08-24T15:50:19.828Z,9.40
2018-08-24T15:55:24.076Z,7.60
2018-08-24T16:00:27.823Z,9.40
2018-08-24T16:05:31.489Z,10.00
2018-08-24T16:10:35.153Z,9.75
2018-08-24T16:15:38.917Z,10.00
2018-08-24T16:20:42.921Z,10.40
2018-08-24T16:25:47.215Z,11.40
2018-08-24T16:30:51.002Z,11.00
2018-08-24T16:35:54.606Z,12.60
2018-08-24T16:40:58.215Z,11.00
2018-08-24T16:46:02.034Z,12.25
2018-08-24T16:51:05.719Z,10.80
2018-08-24T16:56:09.320Z,13.25
2018-08-24T17:01:13.055Z,13.50
2018-08-24T17:06:16.675Z,13.00
2018-08-24T17:11:20.246Z,13.00
2018-08-24T17:16:23.816Z,12.60
2018-08-24T17:21:27.419Z,12.80
2018-08-24T17:26:31.049Z,14.00
2018-08-24T17:31:34.650Z,13.80
2018-08-24T17:36:38.355Z,14.00
2018-08-24T17:41:42.096Z,15.00
2018-08-24T17:46:45.605Z,13.80
2018-08-24T17:51:49.293Z,11.25
2018-08-24T17:56:52.920Z,14.75
2018-08-24T18:01:56.610Z,14.25
2018-08-24T18:07:00.246Z,15.00
2018-08-24T18:12:03.981Z,13.25
2018-08-24T18:17:07.925Z,12.80
2018-08-24T18:22:11.777Z,14.50
2018-08-24T18:27:15.710Z,12.00
2018-08-24T18:32:19.475Z,12.75
2018-08-24T18:37:23.428Z,13.25
2018-08-24T18:42:27.266Z,13.60
2018-08-24T18:47:31.356Z,12.00
2018-08-24T18:52:35.080Z,11.50
2018-08-24T18:57:39.135Z,14.25
2018-08-24T19:02:43.053Z,15.80
2018-08-24T19:07:47.012Z,13.20
2018-08-24T19:12:51.173Z,15.75
2018-08-24T19:18:00.510Z,12.80
2018-08-24T19:23:04.925Z,12.80
2018-08-24T19:28:13.999Z,14.00
2018-08-24T19:33:17.895Z,16.60
2018-08-24T19:43:37.639Z,14.00
2018-08-24T19:48:46.551Z,12.75
2018-08-24T19:53:50.272Z,12.50
2018-08-24T19:58:59.028Z,15.00
2018-08-24T20:04:03.435Z,14.20
2018-08-24T20:09:14.990Z,18.00
2018-08-24T20:14:24.238Z,13.00
2018-08-24T20:19:28.768Z,15.00
2018-08-24T20:24:32.564Z,16.25
2018-08-24T20:29:36.176Z,16.00
2018-08-24T20:34:39.910Z,12.80
2018-08-24T20:39:43.703Z,12.50
2018-08-24T20:44:47.437Z,15.00
2018-08-24T20:49:51.114Z,13.00
2018-08-24T20:54:54.639Z,14.20
2018-08-24T20:59:58.246Z,16.00
2018-08-24T21:05:02.008Z,14.00
2018-08-24T21:10:05.947Z,16.75
2018-08-24T21:15:09.606Z,12.20
2018-08-24T21:20:13.283Z,17.25
2018-08-24T21:25:16.881Z,13.00
2018-08-24T21:30:20.587Z,14.00
2018-08-24T21:35:24.111Z,13.20
2018-08-24T21:40:27.741Z,12.40
2018-08-24T21:45:31.460Z,14.00
2018-08-24T21:50:35.100Z,13.50
2018-08-24T21:55:38.750Z,14.20
2018-08-24T22:00:43.359Z,14.00
2018-08-24T22:05:46.957Z,13.25
2018-08-24T22:10:50.562Z,13.00
2018-08-24T22:15:54.207Z,13.25
2018-08-24T22:20:57.816Z,11.25
2018-08-24T22:26:01.451Z,9.75
2018-08-24T22:31:05.416Z,12.00
2018-08-24T22:36:09.075Z,10.40
2018-08-24T22:41:12.807Z,12.00
2018-08-24T22:46:17.153Z,10.00
2018-08-24T22:51:20.896Z,10.00
2018-08-24T22:56:24.579Z,10.40
2018-08-24T23:01:28.312Z,10.25
2018-08-24T23:06:31.870Z,11.00
2018-08-24T23:11:35.462Z,10.80
2018-08-24T23:16:39.157Z,11.50
2018-08-24T23:21:42.781Z,9.80
2018-08-24T23:26:46.398Z,11.00
2018-08-24T23:31:50.244Z,12.00
2018-08-24T23:36:53.963Z,11.20
2018-08-24T23:41:57.596Z,10.20
2018-08-24T23:47:01.825Z,12.00
2018-08-24T23:52:05.644Z,10.25
2018-08-24T23:57:09.320Z,10.25
